AFR452 LFMN-LFPO
Flight info
| Callsign | AFR452 |
|---|---|
| Flight time | 1h 12m |
| Altitude | 34000 |
| Route | BADOD8A/04R BADOD DCT NEDRU DCT LTP DCT BULOL DCT IDAVO DCT ARDOL |
| Aircraft | A320/M-SDE3FGHIRWY/LB1 |
Departure
| Time | 2026-05-07 19:51 |
|---|---|
| Airport | Nice-Côte d'Azur Airport (LFMN) |
Arrival
| Time | 2026-05-07 21:03 |
|---|---|
| Airport | Paris-Orly Airport (LFPO) |
| Time | Latitude | Longitude | Altitude | Speed | Heading |
|---|---|---|---|---|---|
| 2026-05-07 19:24 | 43.65995 | 7.20721 | 21 ft | 0 kts | 259° |
| 2026-05-07 19:38 | 43.65998 | 7.20745 | 21 ft | 4 kts | 259° |
| 2026-05-07 19:38 | 43.66004 | 7.20780 | 22 ft | 4 kts | 245° |
| 2026-05-07 19:38 | 43.66019 | 7.20807 | 21 ft | 4 kts | 200° |
| 2026-05-07 19:38 | 43.66037 | 7.20810 | 21 ft | 1 kts | 171° |
| 2026-05-07 19:39 | 43.66040 | 7.20810 | 21 ft | 0 kts | 171° |
| 2026-05-07 19:42 | 43.66016 | 7.20815 | 21 ft | 7 kts | 171° |
| 2026-05-07 19:42 | 43.65968 | 7.20825 | 21 ft | 6 kts | 171° |
| 2026-05-07 19:42 | 43.65932 | 7.20833 | 21 ft | 5 kts | 171° |
| 2026-05-07 19:42 | 43.65902 | 7.20839 | 21 ft | 4 kts | 171° |
| 2026-05-07 19:43 | 43.65879 | 7.20844 | 21 ft | 5 kts | 171° |
| 2026-05-07 19:43 | 43.65843 | 7.20852 | 21 ft | 5 kts | 170° |
| 2026-05-07 19:43 | 43.65815 | 7.20859 | 21 ft | 3 kts | 169° |
| 2026-05-07 19:43 | 43.65769 | 7.20870 | 21 ft | 8 kts | 170° |
| 2026-05-07 19:44 | 43.65719 | 7.20881 | 21 ft | 7 kts | 171° |
| 2026-05-07 19:44 | 43.65706 | 7.20884 | 21 ft | 0 kts | 171° |
| 2026-05-07 19:45 | 43.65689 | 7.20888 | 21 ft | 3 kts | 171° |
| 2026-05-07 19:46 | 43.65668 | 7.20893 | 21 ft | 6 kts | 171° |
| 2026-05-07 19:46 | 43.65580 | 7.20913 | 24 ft | 18 kts | 171° |
| 2026-05-07 19:46 | 43.65456 | 7.20940 | 22 ft | 11 kts | 172° |
| 2026-05-07 19:46 | 43.65387 | 7.20952 | 22 ft | 9 kts | 177° |
| 2026-05-07 19:47 | 43.65335 | 7.20929 | 23 ft | 7 kts | 214° |
| 2026-05-07 19:47 | 43.65300 | 7.20886 | 21 ft | 6 kts | 224° |
| 2026-05-07 19:47 | 43.65261 | 7.20833 | 22 ft | 12 kts | 225° |
| 2026-05-07 19:47 | 43.65185 | 7.20727 | 21 ft | 19 kts | 225° |
| 2026-05-07 19:48 | 43.65078 | 7.20580 | 21 ft | 23 kts | 225° |
| 2026-05-07 19:48 | 43.64964 | 7.20422 | 22 ft | 22 kts | 224° |
| 2026-05-07 19:48 | 43.64872 | 7.20297 | 23 ft | 13 kts | 225° |
| 2026-05-07 19:48 | 43.64816 | 7.20221 | 22 ft | 7 kts | 224° |
| 2026-05-07 19:49 | 43.64778 | 7.20187 | 22 ft | 6 kts | 198° |
| 2026-05-07 19:49 | 43.64734 | 7.20195 | 22 ft | 9 kts | 154° |
| 2026-05-07 19:49 | 43.64709 | 7.20277 | 23 ft | 9 kts | 79° |
| 2026-05-07 19:49 | 43.64728 | 7.20322 | 23 ft | 0 kts | 49° |
| 2026-05-07 19:50 | 43.64778 | 7.20396 | 23 ft | 42 kts | 46° |
| 2026-05-07 19:50 | 43.65158 | 7.20917 | 21 ft | 109 kts | 45° |
| 2026-05-07 19:50 | 43.65829 | 7.21834 | 23 ft | 161 kts | 44° |
| 2026-05-07 19:50 | 43.66714 | 7.23021 | 236 ft | 190 kts | 47° |
| 2026-05-07 19:51 | 43.67256 | 7.24708 | 704 ft | 205 kts | 92° |
| 2026-05-07 19:51 | 43.66747 | 7.26538 | 1389 ft | 212 kts | 131° |
| 2026-05-07 19:51 | 43.65641 | 7.27907 | 2243 ft | 215 kts | 143° |
| 2026-05-07 19:51 | 43.64425 | 7.29142 | 3031 ft | 219 kts | 143° |
| 2026-05-07 19:52 | 43.63202 | 7.30412 | 3798 ft | 221 kts | 142° |
| 2026-05-07 19:52 | 43.61924 | 7.31663 | 4557 ft | 224 kts | 158° |
| 2026-05-07 19:52 | 43.60391 | 7.31915 | 5257 ft | 226 kts | 192° |
| 2026-05-07 19:52 | 43.58961 | 7.31021 | 5984 ft | 229 kts | 212° |
| 2026-05-07 19:53 | 43.57605 | 7.29846 | 6706 ft | 232 kts | 212° |
| 2026-05-07 19:53 | 43.56236 | 7.28641 | 7401 ft | 235 kts | 216° |
| 2026-05-07 19:53 | 43.55168 | 7.26947 | 8066 ft | 239 kts | 246° |
| 2026-05-07 19:53 | 43.54862 | 7.24698 | 8743 ft | 243 kts | 277° |
| 2026-05-07 19:54 | 43.55438 | 7.22528 | 9420 ft | 245 kts | 306° |
| 2026-05-07 19:54 | 43.56491 | 7.20661 | 10115 ft | 248 kts | 309° |
| 2026-05-07 19:54 | 43.57567 | 7.18788 | 10777 ft | 251 kts | 308° |
| 2026-05-07 19:54 | 43.58655 | 7.16892 | 11450 ft | 253 kts | 308° |
| 2026-05-07 19:55 | 43.59752 | 7.14972 | 12129 ft | 256 kts | 307° |
| 2026-05-07 19:55 | 43.60865 | 7.13051 | 12806 ft | 258 kts | 311° |
| 2026-05-07 19:55 | 43.62226 | 7.11340 | 13217 ft | 275 kts | 319° |
| 2026-05-07 19:55 | 43.63761 | 7.09578 | 13407 ft | 299 kts | 319° |
| 2026-05-07 19:56 | 43.65430 | 7.07682 | 13570 ft | 322 kts | 319° |
| 2026-05-07 19:56 | 43.67222 | 7.05650 | 13709 ft | 345 kts | 319° |
| 2026-05-07 19:56 | 43.69132 | 7.03483 | 13869 ft | 364 kts | 319° |
| 2026-05-07 19:56 | 43.71112 | 7.01227 | 14320 ft | 372 kts | 319° |
| 2026-05-07 19:57 | 43.73120 | 6.98931 | 14916 ft | 376 kts | 319° |
| 2026-05-07 19:57 | 43.75145 | 6.96612 | 15527 ft | 380 kts | 319° |
| 2026-05-07 19:57 | 43.77187 | 6.94275 | 16149 ft | 382 kts | 319° |
| 2026-05-07 19:57 | 43.79245 | 6.91922 | 16776 ft | 385 kts | 319° |
| 2026-05-07 19:58 | 43.81319 | 6.89545 | 17389 ft | 388 kts | 319° |
| 2026-05-07 19:58 | 43.83403 | 6.87148 | 18010 ft | 391 kts | 319° |
| 2026-05-07 19:58 | 43.85507 | 6.84725 | 18556 ft | 395 kts | 318° |
| 2026-05-07 19:58 | 43.87621 | 6.82284 | 19086 ft | 398 kts | 318° |
| 2026-05-07 19:59 | 43.89753 | 6.79821 | 19623 ft | 400 kts | 318° |
| 2026-05-07 19:59 | 43.91901 | 6.77347 | 20163 ft | 402 kts | 318° |
| 2026-05-07 19:59 | 43.94094 | 6.74917 | 20691 ft | 406 kts | 322° |
| 2026-05-07 19:59 | 43.96519 | 6.72863 | 21187 ft | 410 kts | 327° |
| 2026-05-07 20:00 | 43.99004 | 6.70884 | 21685 ft | 412 kts | 327° |
| 2026-05-07 20:00 | 44.01496 | 6.68898 | 22194 ft | 415 kts | 327° |
| 2026-05-07 20:00 | 44.04007 | 6.66885 | 22676 ft | 417 kts | 327° |
| 2026-05-07 20:00 | 44.06523 | 6.64859 | 23171 ft | 419 kts | 326° |
| 2026-05-07 20:01 | 44.09052 | 6.62818 | 23633 ft | 421 kts | 326° |
| 2026-05-07 20:01 | 44.11586 | 6.60775 | 24002 ft | 423 kts | 326° |
| 2026-05-07 20:01 | 44.14135 | 6.58718 | 24377 ft | 424 kts | 326° |
| 2026-05-07 20:01 | 44.16694 | 6.56649 | 24728 ft | 426 kts | 326° |
| 2026-05-07 20:02 | 44.19266 | 6.54567 | 25073 ft | 428 kts | 326° |
| 2026-05-07 20:02 | 44.21845 | 6.52482 | 25412 ft | 430 kts | 326° |
| 2026-05-07 20:02 | 44.24434 | 6.50389 | 25772 ft | 431 kts | 326° |
| 2026-05-07 20:02 | 44.27036 | 6.48286 | 26114 ft | 433 kts | 326° |
| 2026-05-07 20:03 | 44.29649 | 6.46175 | 26465 ft | 435 kts | 326° |
| 2026-05-07 20:03 | 44.32276 | 6.44046 | 26762 ft | 438 kts | 326° |
| 2026-05-07 20:03 | 44.34919 | 6.41899 | 27083 ft | 440 kts | 325° |
| 2026-05-07 20:03 | 44.37572 | 6.39742 | 27410 ft | 442 kts | 325° |
| 2026-05-07 20:04 | 44.40237 | 6.37574 | 27748 ft | 444 kts | 325° |
| 2026-05-07 20:04 | 44.42906 | 6.35399 | 28061 ft | 445 kts | 325° |
| 2026-05-07 20:04 | 44.45590 | 6.33208 | 28354 ft | 447 kts | 325° |
| 2026-05-07 20:04 | 44.48280 | 6.31010 | 28589 ft | 449 kts | 325° |
| 2026-05-07 20:05 | 44.50981 | 6.28800 | 28847 ft | 451 kts | 325° |
| 2026-05-07 20:05 | 44.53692 | 6.26577 | 29087 ft | 452 kts | 325° |
| 2026-05-07 20:05 | 44.56415 | 6.24336 | 29333 ft | 453 kts | 324° |
| 2026-05-07 20:05 | 44.59125 | 6.22105 | 29696 ft | 452 kts | 324° |
| 2026-05-07 20:06 | 44.61837 | 6.19876 | 30042 ft | 451 kts | 324° |
| 2026-05-07 20:06 | 44.64543 | 6.17656 | 30350 ft | 450 kts | 324° |
| 2026-05-07 20:06 | 44.67242 | 6.15440 | 30662 ft | 448 kts | 324° |
| 2026-05-07 20:06 | 44.69927 | 6.13229 | 30981 ft | 447 kts | 324° |
| 2026-05-07 20:07 | 44.72601 | 6.11024 | 31301 ft | 445 kts | 323° |
| 2026-05-07 20:07 | 44.75268 | 6.08819 | 31642 ft | 444 kts | 323° |
| 2026-05-07 20:07 | 44.77927 | 6.06615 | 31924 ft | 443 kts | 322° |
| 2026-05-07 20:07 | 44.80581 | 6.04413 | 32223 ft | 443 kts | 322° |
| 2026-05-07 20:08 | 44.83229 | 6.02215 | 32560 ft | 442 kts | 322° |
| 2026-05-07 20:08 | 44.85875 | 6.00020 | 32893 ft | 441 kts | 323° |
| 2026-05-07 20:08 | 44.88490 | 5.97852 | 33091 ft | 442 kts | 323° |
| 2026-05-07 20:08 | 44.91174 | 5.95626 | 33376 ft | 442 kts | 323° |
| 2026-05-07 20:09 | 44.93820 | 5.93429 | 33644 ft | 441 kts | 322° |
| 2026-05-07 20:09 | 44.96429 | 5.91260 | 33897 ft | 441 kts | 322° |
| 2026-05-07 20:09 | 44.99100 | 5.89030 | 34014 ft | 440 kts | 322° |
| 2026-05-07 20:10 | 45.04327 | 5.84657 | 34041 ft | 439 kts | 322° |
| 2026-05-07 20:10 | 45.09565 | 5.80215 | 34020 ft | 439 kts | 322° |
| 2026-05-07 20:11 | 45.14686 | 5.75553 | 34016 ft | 438 kts | 321° |
| 2026-05-07 20:11 | 45.19788 | 5.70774 | 34020 ft | 440 kts | 321° |
| 2026-05-07 20:12 | 45.24912 | 5.66024 | 34033 ft | 440 kts | 322° |
| 2026-05-07 20:12 | 45.29226 | 5.62075 | 34025 ft | 440 kts | 322° |
| 2026-05-07 20:13 | 45.34370 | 5.57361 | 34027 ft | 440 kts | 322° |
| 2026-05-07 20:13 | 45.39508 | 5.52619 | 34024 ft | 440 kts | 322° |
| 2026-05-07 20:14 | 45.44609 | 5.47892 | 34023 ft | 440 kts | 322° |
| 2026-05-07 20:14 | 45.49850 | 5.43338 | 34026 ft | 445 kts | 330° |
| 2026-05-07 20:15 | 45.55551 | 5.39788 | 34022 ft | 447 kts | 332° |
| 2026-05-07 20:15 | 45.61263 | 5.36264 | 34020 ft | 447 kts | 332° |
| 2026-05-07 20:16 | 45.66976 | 5.32727 | 34020 ft | 447 kts | 332° |
| 2026-05-07 20:16 | 45.72682 | 5.29179 | 34003 ft | 447 kts | 332° |
| 2026-05-07 20:17 | 45.78391 | 5.25623 | 34003 ft | 447 kts | 332° |
| 2026-05-07 20:17 | 45.84095 | 5.22061 | 34006 ft | 447 kts | 332° |
| 2026-05-07 20:18 | 45.89795 | 5.18484 | 34005 ft | 447 kts | 332° |
| 2026-05-07 20:18 | 45.95488 | 5.14904 | 34008 ft | 447 kts | 332° |
| 2026-05-07 20:19 | 46.01203 | 5.11309 | 34007 ft | 450 kts | 332° |
| 2026-05-07 20:19 | 46.06964 | 5.07679 | 34022 ft | 450 kts | 332° |
| 2026-05-07 20:20 | 46.12670 | 5.04074 | 34016 ft | 449 kts | 332° |
| 2026-05-07 20:20 | 46.18389 | 5.00419 | 34016 ft | 449 kts | 332° |
| 2026-05-07 20:21 | 46.24103 | 4.96762 | 34015 ft | 449 kts | 332° |
| 2026-05-07 20:21 | 46.29810 | 4.93113 | 34027 ft | 449 kts | 332° |
| 2026-05-07 20:22 | 46.35515 | 4.89452 | 34024 ft | 448 kts | 332° |
| 2026-05-07 20:22 | 46.41212 | 4.85777 | 34023 ft | 448 kts | 332° |
| 2026-05-07 20:23 | 46.46892 | 4.82097 | 34042 ft | 447 kts | 332° |
| 2026-05-07 20:23 | 46.52579 | 4.78418 | 34034 ft | 447 kts | 332° |
| 2026-05-07 20:24 | 46.58256 | 4.74745 | 34033 ft | 447 kts | 332° |
| 2026-05-07 20:24 | 46.63933 | 4.71065 | 34026 ft | 447 kts | 332° |
| 2026-05-07 20:25 | 46.69604 | 4.67372 | 34023 ft | 447 kts | 331° |
| 2026-05-07 20:25 | 46.75280 | 4.63665 | 34020 ft | 447 kts | 331° |
| 2026-05-07 20:26 | 46.80957 | 4.59974 | 34028 ft | 447 kts | 332° |
| 2026-05-07 20:26 | 46.86650 | 4.56315 | 34024 ft | 447 kts | 332° |
| 2026-05-07 20:27 | 46.92331 | 4.52641 | 34033 ft | 446 kts | 331° |
| 2026-05-07 20:27 | 46.95004 | 4.50410 | 34036 ft | 439 kts | 320° |
| 2026-05-07 20:27 | 46.97502 | 4.47838 | 34041 ft | 439 kts | 320° |
| 2026-05-07 20:28 | 47.02513 | 4.42704 | 34034 ft | 440 kts | 321° |
| 2026-05-07 20:28 | 47.07571 | 4.37620 | 34046 ft | 441 kts | 321° |
| 2026-05-07 20:29 | 47.12633 | 4.32524 | 34050 ft | 441 kts | 321° |
| 2026-05-07 20:29 | 47.17670 | 4.27410 | 34053 ft | 440 kts | 321° |
| 2026-05-07 20:30 | 47.22703 | 4.22285 | 34039 ft | 440 kts | 321° |
| 2026-05-07 20:30 | 47.27740 | 4.17148 | 33993 ft | 441 kts | 321° |
| 2026-05-07 20:30 | 47.30254 | 4.14580 | 33688 ft | 441 kts | 321° |
| 2026-05-07 20:31 | 47.32776 | 4.12001 | 33405 ft | 441 kts | 321° |
| 2026-05-07 20:31 | 47.34446 | 4.10291 | 33231 ft | 441 kts | 321° |
| 2026-05-07 20:31 | 47.37822 | 4.06827 | 32864 ft | 443 kts | 321° |
| 2026-05-07 20:31 | 47.40353 | 4.04225 | 31966 ft | 447 kts | 321° |
| 2026-05-07 20:32 | 47.42915 | 4.01586 | 30988 ft | 450 kts | 321° |
| 2026-05-07 20:32 | 47.45491 | 3.98931 | 29890 ft | 454 kts | 322° |
| 2026-05-07 20:32 | 47.48096 | 3.96248 | 28715 ft | 457 kts | 322° |
| 2026-05-07 20:32 | 47.50663 | 3.93608 | 28040 ft | 451 kts | 322° |
| 2026-05-07 20:33 | 47.53248 | 3.90951 | 27356 ft | 444 kts | 322° |
| 2026-05-07 20:33 | 47.55775 | 3.88348 | 26650 ft | 440 kts | 322° |
| 2026-05-07 20:33 | 47.58270 | 3.85771 | 25966 ft | 435 kts | 322° |
| 2026-05-07 20:33 | 47.60743 | 3.83205 | 25298 ft | 432 kts | 322° |
| 2026-05-07 20:34 | 47.63192 | 3.80662 | 24642 ft | 428 kts | 322° |
| 2026-05-07 20:34 | 47.65625 | 3.78135 | 23988 ft | 425 kts | 322° |
| 2026-05-07 20:34 | 47.68037 | 3.75620 | 23296 ft | 423 kts | 322° |
| 2026-05-07 20:34 | 47.70431 | 3.73121 | 22657 ft | 418 kts | 322° |
| 2026-05-07 20:35 | 47.72756 | 3.70699 | 22290 ft | 402 kts | 322° |
| 2026-05-07 20:35 | 47.74986 | 3.68380 | 21828 ft | 384 kts | 322° |
| 2026-05-07 20:35 | 47.77173 | 3.66099 | 21094 ft | 378 kts | 322° |
| 2026-05-07 20:35 | 47.79300 | 3.63870 | 20517 ft | 379 kts | 322° |
| 2026-05-07 20:36 | 47.81444 | 3.61618 | 20100 ft | 374 kts | 322° |
| 2026-05-07 20:36 | 47.83558 | 3.59397 | 19574 ft | 373 kts | 322° |
| 2026-05-07 20:36 | 47.85670 | 3.57179 | 19224 ft | 368 kts | 322° |
| 2026-05-07 20:36 | 47.87760 | 3.54982 | 18642 ft | 369 kts | 322° |
| 2026-05-07 20:37 | 47.89821 | 3.52814 | 18159 ft | 359 kts | 322° |
| 2026-05-07 20:37 | 47.91864 | 3.50662 | 17710 ft | 358 kts | 322° |
| 2026-05-07 20:37 | 47.93892 | 3.48529 | 17248 ft | 356 kts | 323° |
| 2026-05-07 20:37 | 47.95906 | 3.46409 | 16799 ft | 353 kts | 323° |
| 2026-05-07 20:38 | 47.97909 | 3.44297 | 16336 ft | 351 kts | 322° |
| 2026-05-07 20:38 | 47.99898 | 3.42197 | 15881 ft | 349 kts | 322° |
| 2026-05-07 20:38 | 48.01878 | 3.40103 | 15396 ft | 348 kts | 322° |
| 2026-05-07 20:38 | 48.03849 | 3.38014 | 14925 ft | 347 kts | 322° |
| 2026-05-07 20:39 | 48.05821 | 3.35921 | 14431 ft | 347 kts | 322° |
| 2026-05-07 20:39 | 48.07793 | 3.33826 | 13939 ft | 348 kts | 323° |
| 2026-05-07 20:39 | 48.09746 | 3.31755 | 13585 ft | 342 kts | 323° |
| 2026-05-07 20:39 | 48.11703 | 3.29680 | 13032 ft | 343 kts | 323° |
| 2026-05-07 20:40 | 48.13613 | 3.27655 | 12886 ft | 330 kts | 323° |
| 2026-05-07 20:40 | 48.15429 | 3.25731 | 12724 ft | 309 kts | 322° |
| 2026-05-07 20:40 | 48.17146 | 3.23907 | 12276 ft | 299 kts | 322° |
| 2026-05-07 20:40 | 48.18825 | 3.22115 | 11682 ft | 294 kts | 322° |
| 2026-05-07 20:41 | 48.20468 | 3.20327 | 11068 ft | 290 kts | 317° |
| 2026-05-07 20:41 | 48.21877 | 3.18216 | 10733 ft | 285 kts | 310° |
| 2026-05-07 20:41 | 48.23253 | 3.16041 | 10625 ft | 288 kts | 311° |
| 2026-05-07 20:41 | 48.24652 | 3.13869 | 10487 ft | 289 kts | 311° |
| 2026-05-07 20:42 | 48.26045 | 3.11705 | 10370 ft | 288 kts | 311° |
| 2026-05-07 20:42 | 48.27433 | 3.09538 | 10246 ft | 288 kts | 311° |
| 2026-05-07 20:42 | 48.28817 | 3.07371 | 10119 ft | 287 kts | 311° |
| 2026-05-07 20:42 | 48.30202 | 3.05221 | 10043 ft | 286 kts | 312° |
| 2026-05-07 20:43 | 48.31591 | 3.03076 | 10048 ft | 287 kts | 312° |
| 2026-05-07 20:43 | 48.32980 | 3.00931 | 10049 ft | 287 kts | 312° |
| 2026-05-07 20:43 | 48.34372 | 2.98779 | 10051 ft | 287 kts | 311° |
| 2026-05-07 20:43 | 48.35764 | 2.96622 | 10055 ft | 288 kts | 311° |
| 2026-05-07 20:44 | 48.37154 | 2.94465 | 10053 ft | 288 kts | 311° |
| 2026-05-07 20:44 | 48.38547 | 2.92299 | 10054 ft | 288 kts | 311° |
| 2026-05-07 20:44 | 48.39936 | 2.90137 | 10050 ft | 288 kts | 311° |
| 2026-05-07 20:44 | 48.41323 | 2.87973 | 10059 ft | 286 kts | 311° |
| 2026-05-07 20:45 | 48.42706 | 2.85815 | 10053 ft | 286 kts | 311° |
| 2026-05-07 20:45 | 48.44083 | 2.83664 | 10053 ft | 286 kts | 311° |
| 2026-05-07 20:45 | 48.45434 | 2.81475 | 10052 ft | 284 kts | 304° |
| 2026-05-07 20:45 | 48.46309 | 2.78850 | 10053 ft | 280 kts | 282° |
| 2026-05-07 20:46 | 48.46468 | 2.76031 | 10053 ft | 263 kts | 266° |
| 2026-05-07 20:46 | 48.46388 | 2.73364 | 10050 ft | 247 kts | 266° |
| 2026-05-07 20:46 | 48.46308 | 2.70836 | 10052 ft | 238 kts | 266° |
| 2026-05-07 20:46 | 48.46226 | 2.68354 | 10053 ft | 236 kts | 266° |
| 2026-05-07 20:47 | 48.46144 | 2.65884 | 10054 ft | 236 kts | 265° |
| 2026-05-07 20:47 | 48.46077 | 2.63413 | 10054 ft | 236 kts | 269° |
| 2026-05-07 20:47 | 48.46178 | 2.60939 | 10054 ft | 237 kts | 274° |
| 2026-05-07 20:47 | 48.46340 | 2.58463 | 9910 ft | 240 kts | 274° |
| 2026-05-07 20:48 | 48.46513 | 2.55973 | 9360 ft | 238 kts | 274° |
| 2026-05-07 20:48 | 48.46679 | 2.53510 | 8831 ft | 235 kts | 274° |
| 2026-05-07 20:48 | 48.46782 | 2.51897 | 8485 ft | 233 kts | 274° |
| 2026-05-07 20:48 | 48.46976 | 2.48642 | 7801 ft | 236 kts | 274° |
| 2026-05-07 20:49 | 48.47111 | 2.46149 | 7298 ft | 241 kts | 274° |
| 2026-05-07 20:49 | 48.47239 | 2.43602 | 6800 ft | 246 kts | 274° |
| 2026-05-07 20:49 | 48.47357 | 2.41005 | 6296 ft | 251 kts | 274° |
| 2026-05-07 20:49 | 48.47469 | 2.38355 | 5771 ft | 255 kts | 274° |
| 2026-05-07 20:50 | 48.47584 | 2.35671 | 5254 ft | 258 kts | 274° |
| 2026-05-07 20:50 | 48.47706 | 2.32953 | 4744 ft | 262 kts | 274° |
| 2026-05-07 20:50 | 48.47838 | 2.30208 | 4289 ft | 262 kts | 274° |
| 2026-05-07 20:50 | 48.47968 | 2.27515 | 4066 ft | 253 kts | 274° |
| 2026-05-07 20:51 | 48.48093 | 2.24943 | 3994 ft | 238 kts | 274° |
| 2026-05-07 20:51 | 48.48211 | 2.22519 | 4001 ft | 230 kts | 274° |
| 2026-05-07 20:51 | 48.48326 | 2.20128 | 4002 ft | 228 kts | 274° |
| 2026-05-07 20:51 | 48.48441 | 2.17747 | 4004 ft | 228 kts | 274° |
| 2026-05-07 20:52 | 48.48556 | 2.15367 | 4004 ft | 228 kts | 274° |
| 2026-05-07 20:52 | 48.48673 | 2.12981 | 4004 ft | 228 kts | 274° |
| 2026-05-07 20:52 | 48.48789 | 2.10596 | 4004 ft | 228 kts | 274° |
| 2026-05-07 20:52 | 48.48906 | 2.08216 | 4004 ft | 228 kts | 274° |
| 2026-05-07 20:53 | 48.49021 | 2.05832 | 4004 ft | 228 kts | 274° |
| 2026-05-07 20:53 | 48.49098 | 2.04254 | 4004 ft | 228 kts | 274° |
| 2026-05-07 20:53 | 48.49214 | 2.01868 | 4004 ft | 228 kts | 274° |
| 2026-05-07 20:53 | 48.49331 | 1.99480 | 4004 ft | 228 kts | 274° |
| 2026-05-07 20:54 | 48.49447 | 1.97096 | 4007 ft | 228 kts | 274° |
| 2026-05-07 20:54 | 48.49628 | 1.94728 | 4005 ft | 228 kts | 285° |
| 2026-05-07 20:54 | 48.50276 | 1.92559 | 4007 ft | 228 kts | 306° |
| 2026-05-07 20:54 | 48.51367 | 1.90837 | 4007 ft | 227 kts | 325° |
| 2026-05-07 20:55 | 48.52757 | 1.89745 | 4006 ft | 226 kts | 343° |
| 2026-05-07 20:55 | 48.54279 | 1.89380 | 4003 ft | 215 kts | 2° |
| 2026-05-07 20:55 | 48.55701 | 1.89720 | 4004 ft | 203 kts | 20° |
| 2026-05-07 20:55 | 48.56957 | 1.90648 | 4007 ft | 200 kts | 37° |
| 2026-05-07 20:56 | 48.57971 | 1.92067 | 4006 ft | 199 kts | 53° |
| 2026-05-07 20:56 | 48.58682 | 1.93849 | 4009 ft | 199 kts | 64° |
| 2026-05-07 20:56 | 48.59292 | 1.95728 | 4009 ft | 199 kts | 65° |
| 2026-05-07 20:56 | 48.59900 | 1.97609 | 4009 ft | 199 kts | 65° |
| 2026-05-07 20:57 | 48.60508 | 1.99473 | 4030 ft | 192 kts | 63° |
| 2026-05-07 20:57 | 48.61105 | 2.01177 | 4019 ft | 175 kts | 62° |
| 2026-05-07 20:57 | 48.61662 | 2.02717 | 3994 ft | 159 kts | 62° |
| 2026-05-07 20:57 | 48.62170 | 2.04128 | 3998 ft | 150 kts | 62° |
| 2026-05-07 20:58 | 48.62667 | 2.05511 | 4003 ft | 149 kts | 62° |
| 2026-05-07 20:58 | 48.63162 | 2.06893 | 3936 ft | 150 kts | 62° |
| 2026-05-07 20:58 | 48.63631 | 2.08204 | 3799 ft | 149 kts | 63° |
| 2026-05-07 20:58 | 48.64150 | 2.09656 | 3610 ft | 149 kts | 63° |
| 2026-05-07 20:59 | 48.64642 | 2.11030 | 3421 ft | 148 kts | 63° |
| 2026-05-07 20:59 | 48.65130 | 2.12397 | 3225 ft | 147 kts | 63° |
| 2026-05-07 20:59 | 48.65614 | 2.13753 | 3025 ft | 146 kts | 63° |
| 2026-05-07 20:59 | 48.66095 | 2.15101 | 2827 ft | 145 kts | 63° |
| 2026-05-07 21:00 | 48.66573 | 2.16439 | 2615 ft | 144 kts | 63° |
| 2026-05-07 21:00 | 48.67045 | 2.17762 | 2436 ft | 143 kts | 63° |
| 2026-05-07 21:00 | 48.67514 | 2.19079 | 2241 ft | 142 kts | 63° |
| 2026-05-07 21:00 | 48.67971 | 2.20363 | 2083 ft | 139 kts | 64° |
| 2026-05-07 21:01 | 48.68431 | 2.21654 | 1878 ft | 137 kts | 63° |
| 2026-05-07 21:01 | 48.68881 | 2.22917 | 1697 ft | 136 kts | 64° |
| 2026-05-07 21:01 | 48.69329 | 2.24177 | 1495 ft | 136 kts | 63° |
| 2026-05-07 21:01 | 48.69772 | 2.25440 | 1304 ft | 136 kts | 64° |
| 2026-05-07 21:02 | 48.70202 | 2.26710 | 1106 ft | 136 kts | 64° |
| 2026-05-07 21:02 | 48.70658 | 2.27963 | 950 ft | 136 kts | 62° |
| 2026-05-07 21:02 | 48.71113 | 2.29215 | 773 ft | 135 kts | 62° |
| 2026-05-07 21:02 | 48.71561 | 2.30471 | 593 ft | 136 kts | 63° |
| 2026-05-07 21:03 | 48.72011 | 2.31724 | 397 ft | 136 kts | 63° |
| 2026-05-07 21:03 | 48.72448 | 2.32946 | 295 ft | 119 kts | 61° |
| 2026-05-07 21:03 | 48.72753 | 2.33811 | 297 ft | 72 kts | 62° |
| 2026-05-07 21:03 | 48.72937 | 2.34350 | 295 ft | 45 kts | 64° |
| 2026-05-07 21:04 | 48.73017 | 2.34770 | 293 ft | 39 kts | 85° |
| 2026-05-07 21:04 | 48.73041 | 2.35062 | 292 ft | 18 kts | 81° |